Terminal Aerodrome Forecast
Issued by NWS

Home | Current Version | Previous Version | Text Only | Print | Product List | Glossary On
Versions: 1 2 3 4 5 6 7 8 9 10 11 12
000
FTUS46 KMFR 281700 RRA
TAFLMT
TAF
KLMT 281745Z 2818/2918 30004KT P6SM SKC
     FM290000 31010KT P6SM FEW080 BKN120
     FM290400 VRB03KT P6SM FEW120=

USA.gov is the U.S. government's official web portal to all federal, state and local government web resources and services.